Time;durP1;ratioP1;P1;durP2;ratioP2;P2;SDS_P1;SDS_P2;PMS_P1;PMS_P2;Temp;Humidity;BMP_temperature;BMP_pressure;BME280_temperature;BME280_humidity;BME280_pressure;Samples;Min_cycle;Max_cycle;Signal;HPM_P1;HPM_P2
2021/12/18 00:02:12;;;;;;;11.80;5.75;;;;;;;;;;5053657;28;20080;-36
2021/12/18 00:04:39;;;;;;;10.90;5.97;;;;;;;;;;5052583;28;20076;-32
2021/12/18 00:07:05;;;;;;;11.40;5.32;;;;;;;;;;5053210;28;20051;-30
2021/12/18 00:09:33;;;;;;;13.68;6.10;;;;;;;;;;5053902;28;20120;-31
2021/12/18 00:11:59;;;;;;;11.60;5.35;;;;;;;;;;5035660;28;20037;-31
2021/12/18 00:14:25;;;;;;;9.05;4.20;;;;;;;;;;5053043;28;20048;-30
2021/12/18 00:16:51;;;;;;;8.05;4.40;;;;;;;;;;5035513;28;20041;-32
2021/12/18 00:19:24;;;;;;;10.45;4.25;;;;;;;;;;5035972;28;20048;-31
2021/12/18 00:21:50;;;;;;;7.82;4.25;;;;;;;;;;5053497;28;20046;-30
2021/12/18 00:24:16;;;;;;;7.68;4.30;;;;;;;;;;5053396;28;20045;-31
2021/12/18 00:26:42;;;;;;;8.63;4.32;;;;;;;;;;5053043;28;20071;-29
2021/12/18 00:29:08;;;;;;;11.35;4.82;;;;;;;;;;5036193;28;20041;-31
2021/12/18 00:31:34;;;;;;;20.65;5.68;;;;;;;;;;5053295;28;20037;-31
2021/12/18 00:34:00;;;;;;;16.38;5.90;;;;;;;;;;5053504;28;20045;-30
2021/12/18 00:36:26;;;;;;;9.10;4.90;;;;;;;;;;5053276;28;20068;-31
2021/12/18 00:38:52;;;;;;;16.05;5.45;;;;;;;;;;5053243;28;20509;-31
2021/12/18 00:44:03;;;;;;;10.25;4.38;;;;;;;;;;5053018;28;20079;-31
2021/12/18 00:46:33;;;;;;;13.13;4.22;;;;;;;;;;5052941;28;20055;-31
2021/12/18 00:49:00;;;;;;;8.50;4.20;;;;;;;;;;5035110;28;20063;-33
2021/12/18 00:51:26;;;;;;;8.02;3.72;;;;;;;;;;5052668;28;20421;-31
2021/12/18 00:53:52;;;;;;;7.65;3.55;;;;;;;;;;5052563;28;20048;-34
2021/12/18 00:56:18;;;;;;;8.05;3.67;;;;;;;;;;5034643;28;20033;-34
2021/12/18 00:58:45;;;;;;;8.77;2.95;;;;;;;;;;5052875;28;20123;-31
2021/12/18 01:01:12;;;;;;;6.78;2.80;;;;;;;;;;5052665;28;20044;-32
2021/12/18 01:03:40;;;;;;;8.52;3.10;;;;;;;;;;5051952;28;20080;-31
2021/12/18 01:06:06;;;;;;;6.45;2.97;;;;;;;;;;5052070;28;20090;-31
2021/12/18 01:08:32;;;;;;;6.50;3.03;;;;;;;;;;5052460;28;20394;-31
2021/12/18 01:14:13;;;;;;;8.85;3.75;;;;;;;;;;5052397;28;20053;-31
2021/12/18 01:16:50;;;;;;;6.10;2.88;;;;;;;;;;5052109;28;20045;-31
2021/12/18 01:24:45;;;;;;;5.85;2.33;;;;;;;;;;5043728;28;20110;-29
2021/12/18 01:27:11;;;;;;;9.02;2.70;;;;;;;;;;5052190;28;20044;-29
2021/12/18 01:29:38;;;;;;;4.63;2.45;;;;;;;;;;5052062;28;20509;-32
2021/12/18 01:32:04;;;;;;;5.40;2.40;;;;;;;;;;5052146;28;20072;-30
2021/12/18 01:34:30;;;;;;;6.00;2.33;;;;;;;;;;5052109;28;20517;-29
2021/12/18 01:36:56;;;;;;;3.78;2.25;;;;;;;;;;5052078;28;20061;-31
2021/12/18 01:39:22;;;;;;;4.82;2.78;;;;;;;;;;5051916;28;20586;-32
2021/12/18 01:42:11;;;;;;;6.13;2.80;;;;;;;;;;5052339;28;20080;-30
2021/12/18 01:52:36;;;;;;;2.80;1.80;;;;;;;;;;5051967;28;20047;-31
2021/12/18 01:55:02;;;;;;;5.78;2.22;;;;;;;;;;5032928;28;20090;-30
2021/12/18 01:57:38;;;;;;;5.50;2.50;;;;;;;;;;5051753;28;20040;-31
2021/12/18 02:00:14;;;;;;;4.00;2.50;;;;;;;;;;5051666;28;20044;-31
2021/12/18 02:02:40;;;;;;;4.47;2.47;;;;;;;;;;5033614;28;20396;-31
2021/12/18 02:05:07;;;;;;;5.03;2.38;;;;;;;;;;5050996;28;20052;-31
2021/12/18 02:07:33;;;;;;;4.22;2.50;;;;;;;;;;5051453;28;20043;-31
2021/12/18 02:10:06;;;;;;;4.78;2.22;;;;;;;;;;5051607;28;20087;-30
2021/12/18 02:20:45;;;;;;;14.25;2.45;;;;;;;;;;5055515;28;20071;-30
2021/12/18 02:23:12;;;;;;;22.73;3.30;;;;;;;;;;5054970;28;20094;-31
2021/12/18 02:25:38;;;;;;;12.55;2.90;;;;;;;;;;5055045;28;20490;-30
2021/12/18 02:28:16;;;;;;;8.10;2.83;;;;;;;;;;5055272;28;20401;-32
2021/12/18 02:30:42;;;;;;;6.50;2.65;;;;;;;;;;5055558;28;20041;-31
2021/12/18 02:33:08;;;;;;;6.80;2.55;;;;;;;;;;5055361;28;20084;-30
2021/12/18 02:35:39;;;;;;;8.57;2.47;;;;;;;;;;5055044;28;20071;-31
2021/12/18 02:38:09;;;;;;;15.45;2.55;;;;;;;;;;5055359;28;20041;-30
2021/12/18 02:43:23;;;;;;;6.72;2.53;;;;;;;;;;5055278;28;20044;-30
2021/12/18 02:45:53;;;;;;;9.05;2.53;;;;;;;;;;5055300;28;20036;-30
2021/12/18 02:48:19;;;;;;;4.22;1.88;;;;;;;;;;5055140;28;20124;-29
2021/12/18 02:50:45;;;;;;;5.65;2.30;;;;;;;;;;5054966;28;20048;-32
2021/12/18 02:53:11;;;;;;;5.25;2.08;;;;;;;;;;5054968;28;20041;-30
2021/12/18 02:55:37;;;;;;;8.45;2.58;;;;;;;;;;5054651;28;20494;-30
2021/12/18 02:58:04;;;;;;;3.75;1.80;;;;;;;;;;5036711;28;20087;-32
2021/12/18 03:00:30;;;;;;;3.17;1.80;;;;;;;;;;5054960;28;20241;-30
2021/12/18 03:02:57;;;;;;;4.22;1.90;;;;;;;;;;5054911;28;20039;-31
2021/12/18 03:05:31;;;;;;;3.90;1.67;;;;;;;;;;5055219;28;20116;-31
2021/12/18 03:08:06;;;;;;;5.15;1.60;;;;;;;;;;5055015;28;20094;-32
2021/12/18 03:19:48;;;;;;;4.57;1.58;;;;;;;;;;5054824;28;20045;-30
2021/12/18 03:24:28;;;;;;;6.40;2.00;;;;;;;;;;5055004;28;20052;-32
2021/12/18 03:26:54;;;;;;;4.22;1.67;;;;;;;;;;5053983;28;20045;-31
2021/12/18 03:29:20;;;;;;;4.88;1.58;;;;;;;;;;5054737;28;20048;-31
2021/12/18 03:31:46;;;;;;;5.55;2.22;;;;;;;;;;5055142;28;20493;-31
2021/12/18 03:34:12;;;;;;;6.00;2.15;;;;;;;;;;5054829;28;20038;-31
2021/12/18 03:36:38;;;;;;;4.57;1.77;;;;;;;;;;5054800;28;20033;-31
2021/12/18 03:39:04;;;;;;;4.05;1.52;;;;;;;;;;5054839;28;20036;-30
2021/12/18 03:41:31;;;;;;;3.53;1.70;;;;;;;;;;5054320;28;20079;-34
2021/12/18 03:43:57;;;;;;;3.55;1.50;;;;;;;;;;5053758;28;20044;-30
2021/12/18 03:46:23;;;;;;;2.55;1.30;;;;;;;;;;5054058;28;20121;-31
2021/12/18 03:48:49;;;;;;;3.55;1.50;;;;;;;;;;5053280;28;20072;-31
2021/12/18 03:51:15;;;;;;;3.25;1.50;;;;;;;;;;5053681;28;20033;-31
2021/12/18 03:53:41;;;;;;;3.00;1.40;;;;;;;;;;5053482;28;20090;-31
2021/12/18 03:56:07;;;;;;;3.38;1.40;;;;;;;;;;5053707;28;20402;-31
2021/12/18 03:58:33;;;;;;;3.17;1.08;;;;;;;;;;5053485;28;20033;-30
2021/12/18 04:00:59;;;;;;;3.65;1.67;;;;;;;;;;5053744;28;20045;-30
2021/12/18 04:03:25;;;;;;;3.35;1.33;;;;;;;;;;5053149;28;20037;-31
2021/12/18 04:05:51;;;;;;;3.63;1.65;;;;;;;;;;5053382;28;20040;-30
2021/12/18 04:08:17;;;;;;;4.00;1.48;;;;;;;;;;5053516;28;20055;-31
2021/12/18 04:10:44;;;;;;;2.25;1.30;;;;;;;;;;5053671;28;20049;-32
2021/12/18 04:13:10;;;;;;;3.17;1.30;;;;;;;;;;5052549;28;20047;-30
2021/12/18 04:15:37;;;;;;;2.70;1.25;;;;;;;;;;5052727;28;20040;-29
2021/12/18 04:18:03;;;;;;;2.53;1.17;;;;;;;;;;5052731;28;20036;-31
2021/12/18 04:20:30;;;;;;;3.60;1.60;;;;;;;;;;5052987;28;20124;-32
2021/12/18 04:22:56;;;;;;;3.25;1.40;;;;;;;;;;5052919;28;20037;-33
2021/12/18 04:25:22;;;;;;;2.72;1.00;;;;;;;;;;5034669;28;20047;-31
2021/12/18 04:27:48;;;;;;;4.10;1.33;;;;;;;;;;5053147;28;20072;-31
2021/12/18 04:30:14;;;;;;;2.15;1.10;;;;;;;;;;5034759;28;20036;-29
2021/12/18 04:32:40;;;;;;;2.65;1.10;;;;;;;;;;5053126;28;20111;-30
2021/12/18 04:35:07;;;;;;;3.10;1.50;;;;;;;;;;5052011;28;20041;-31
2021/12/18 04:37:33;;;;;;;3.42;1.40;;;;;;;;;;5052009;28;20086;-30
2021/12/18 04:39:59;;;;;;;3.08;1.10;;;;;;;;;;5053459;28;20642;-31
2021/12/18 04:42:25;;;;;;;5.45;1.30;;;;;;;;;;5052861;28;20040;-31
2021/12/18 04:44:51;;;;;;;12.95;1.52;;;;;;;;;;5051536;28;20048;-30
2021/12/18 04:47:17;;;;;;;6.30;1.38;;;;;;;;;;5052239;28;20494;-31
2021/12/18 04:49:43;;;;;;;3.72;1.40;;;;;;;;;;5052634;28;20041;-31
2021/12/18 04:52:09;;;;;;;6.90;1.90;;;;;;;;;;5052500;28;20459;-32
2021/12/18 04:54:35;;;;;;;6.53;1.70;;;;;;;;;;5052109;28;20090;-30
2021/12/18 04:57:01;;;;;;;3.95;1.50;;;;;;;;;;5052457;28;20045;-32
2021/12/18 04:59:27;;;;;;;2.65;1.20;;;;;;;;;;5051906;28;20106;-31
2021/12/18 05:02:00;;;;;;;3.45;1.45;;;;;;;;;;5051942;28;20037;-30
2021/12/18 05:04:26;;;;;;;3.25;1.17;;;;;;;;;;5051695;28;20037;-31
2021/12/18 05:06:53;;;;;;;2.80;1.10;;;;;;;;;;5033335;22;20502;-32
2021/12/18 05:09:19;;;;;;;3.38;1.65;;;;;;;;;;5012685;28;20073;-31
2021/12/18 05:11:45;;;;;;;4.32;1.40;;;;;;;;;;5012172;28;20038;-32
2021/12/18 05:14:11;;;;;;;3.67;1.40;;;;;;;;;;5010973;28;20042;-30
2021/12/18 05:16:38;;;;;;;3.00;1.48;;;;;;;;;;5011202;28;20049;-31
2021/12/18 05:19:04;;;;;;;4.75;1.40;;;;;;;;;;5011643;28;20038;-30
2021/12/18 05:21:30;;;;;;;2.15;1.02;;;;;;;;;;5011588;28;20045;-31
2021/12/18 05:23:56;;;;;;;3.65;1.20;;;;;;;;;;5011400;28;20042;-31
2021/12/18 05:26:22;;;;;;;4.28;1.40;;;;;;;;;;5011350;28;20042;-32
2021/12/18 05:28:48;;;;;;;4.35;1.50;;;;;;;;;;4994864;28;20535;-31
2021/12/18 05:31:17;;;;;;;2.40;1.30;;;;;;;;;;5011612;28;20327;-34
2021/12/18 05:33:47;;;;;;;4.78;1.80;;;;;;;;;;4989609;28;20092;-32
2021/12/18 05:39:11;;;;;;;4.20;1.73;;;;;;;;;;4959304;28;20130;-32
2021/12/18 05:41:37;;;;;;;9.40;2.05;;;;;;;;;;5030826;28;20048;-33
2021/12/18 05:44:06;;;;;;;7.00;1.88;;;;;;;;;;5030490;28;20081;-32
2021/12/18 05:46:32;;;;;;;6.10;2.10;;;;;;;;;;5031364;28;20041;-30
2021/12/18 05:48:58;;;;;;;7.43;1.67;;;;;;;;;;5031199;28;20036;-29
2021/12/18 05:51:25;;;;;;;4.10;1.58;;;;;;;;;;5030998;28;20037;-29
2021/12/18 05:53:51;;;;;;;6.38;2.13;;;;;;;;;;5030581;28;20041;-31
2021/12/18 05:56:17;;;;;;;6.15;2.08;;;;;;;;;;5031111;28;20402;-31
2021/12/18 05:58:44;;;;;;;5.45;2.20;;;;;;;;;;5013530;28;20174;-31
2021/12/18 06:01:10;;;;;;;9.18;2.45;;;;;;;;;;4996774;28;20041;-32
2021/12/18 06:03:36;;;;;;;8.20;2.50;;;;;;;;;;5030634;28;20529;-32
2021/12/18 06:06:02;;;;;;;6.85;2.60;;;;;;;;;;5030622;28;20041;-32
2021/12/18 06:08:31;;;;;;;7.15;2.05;;;;;;;;;;5030567;28;20125;-31
2021/12/18 06:11:04;;;;;;;6.63;2.55;;;;;;;;;;5031103;28;20045;-31
2021/12/18 06:13:30;;;;;;;8.35;2.35;;;;;;;;;;5012753;28;20049;-31
2021/12/18 06:15:56;;;;;;;8.82;2.35;;;;;;;;;;5030600;28;20410;-31
2021/12/18 06:18:22;;;;;;;7.97;2.50;;;;;;;;;;5013086;28;20049;-32
2021/12/18 06:20:48;;;;;;;15.63;2.38;;;;;;;;;;5031163;28;20042;-31
2021/12/18 06:23:14;;;;;;;7.32;2.50;;;;;;;;;;5030399;28;20041;-32
2021/12/18 06:25:40;;;;;;;6.68;2.70;;;;;;;;;;5013057;28;20052;-31
2021/12/18 06:28:06;;;;;;;9.77;2.67;;;;;;;;;;5031085;28;20034;-31
2021/12/18 06:30:32;;;;;;;7.55;2.50;;;;;;;;;;5030995;28;20099;-34
2021/12/18 06:32:58;;;;;;;10.63;2.83;;;;;;;;;;5031650;28;20241;-33
2021/12/18 06:35:24;;;;;;;9.60;2.63;;;;;;;;;;5008480;23;20756;-35
2021/12/18 06:37:50;;;;;;;8.25;2.83;;;;;;;;;;5032591;28;20098;-35
2021/12/18 06:40:16;;;;;;;8.88;2.60;;;;;;;;;;5050574;28;20072;-36
2021/12/18 06:42:43;;;;;;;9.68;2.53;;;;;;;;;;5050758;28;20066;-36
2021/12/18 06:45:10;;;;;;;11.10;3.10;;;;;;;;;;5050271;28;20041;-33
2021/12/18 06:47:36;;;;;;;7.88;2.60;;;;;;;;;;5050242;28;20503;-34
2021/12/18 06:50:03;;;;;;;7.70;3.03;;;;;;;;;;5047824;28;20101;-34
2021/12/18 06:52:30;;;;;;;7.53;2.40;;;;;;;;;;5032297;28;20044;-33
2021/12/18 06:54:56;;;;;;;7.60;2.53;;;;;;;;;;5046495;28;20489;-33
2021/12/18 06:57:25;;;;;;;7.93;2.45;;;;;;;;;;5053642;28;20028;-35
2021/12/18 06:59:51;;;;;;;8.82;2.53;;;;;;;;;;5069248;28;20044;-32
2021/12/18 07:02:17;;;;;;;6.25;2.05;;;;;;;;;;5072073;28;20459;-33
2021/12/18 07:04:44;;;;;;;6.95;2.30;;;;;;;;;;5072485;28;20406;-32
2021/12/18 07:07:10;;;;;;;5.50;2.22;;;;;;;;;;5073040;28;20079;-31
2021/12/18 07:09:36;;;;;;;8.07;3.25;;;;;;;;;;5049095;28;20037;-33
2021/12/18 07:12:08;;;;;;;18.10;8.50;;;;;;;;;;5069810;28;20098;-32
2021/12/18 07:14:34;;;;;;;11.48;5.63;;;;;;;;;;5068477;28;20045;-32
2021/12/18 07:17:00;;;;;;;11.40;6.03;;;;;;;;;;5070369;28;20678;-32
2021/12/18 07:19:26;;;;;;;10.38;5.53;;;;;;;;;;5070816;28;20040;-34
2021/12/18 07:21:52;;;;;;;15.98;14.32;;;;;;;;;;5051037;28;20040;-32
2021/12/18 07:24:18;;;;;;;21.65;16.40;;;;;;;;;;5021088;28;20041;-33
2021/12/18 07:26:44;;;;;;;13.05;4.72;;;;;;;;;;5037295;28;20064;-33
2021/12/18 07:29:10;;;;;;;9.23;3.25;;;;;;;;;;5047384;28;20073;-33
2021/12/18 07:31:36;;;;;;;15.77;5.78;;;;;;;;;;5043126;28;20079;-33
2021/12/18 07:34:02;;;;;;;13.70;9.55;;;;;;;;;;5038493;28;20103;-34
2021/12/18 07:36:28;;;;;;;8.63;5.57;;;;;;;;;;5031764;28;20128;-33
2021/12/18 07:38:54;;;;;;;11.52;6.93;;;;;;;;;;5042695;28;20039;-32
2021/12/18 07:41:20;;;;;;;10.65;5.65;;;;;;;;;;5046767;28;20033;-32
2021/12/18 07:44:13;;;;;;;6.85;3.47;;;;;;;;;;5045014;28;20409;-32
2021/12/18 07:46:49;;;;;;;7.90;3.28;;;;;;;;;;5020228;28;20084;-30
2021/12/18 07:49:15;;;;;;;10.57;4.43;;;;;;;;;;5032568;28;20033;-33
2021/12/18 07:51:41;;;;;;;25.30;19.27;;;;;;;;;;5018065;28;20045;-33
2021/12/18 07:54:07;;;;;;;17.38;10.85;;;;;;;;;;5065265;28;20070;-33
2021/12/18 07:56:34;;;;;;;35.85;16.65;;;;;;;;;;5067401;28;20154;-34
2021/12/18 07:59:00;;;;;;;19.98;9.77;;;;;;;;;;5050527;28;20123;-34
2021/12/18 08:01:26;;;;;;;18.83;9.45;;;;;;;;;;5043520;28;20398;-36
2021/12/18 08:03:52;;;;;;;13.45;7.15;;;;;;;;;;5047015;28;20048;-34
2021/12/18 08:06:20;;;;;;;18.33;9.70;;;;;;;;;;5051753;28;20292;-34
2021/12/18 08:08:46;;;;;;;17.45;8.27;;;;;;;;;;5069117;28;21139;-34
2021/12/18 08:11:12;;;;;;;30.48;14.45;;;;;;;;;;5048078;28;20037;-33
2021/12/18 08:13:38;;;;;;;13.23;8.20;;;;;;;;;;5068661;28;20488;-32
2021/12/18 08:16:04;;;;;;;17.48;8.85;;;;;;;;;;5074370;28;20035;-32
2021/12/18 08:18:31;;;;;;;20.73;8.02;;;;;;;;;;5061492;28;20025;-33
2021/12/18 08:20:57;;;;;;;16.10;7.95;;;;;;;;;;5064778;28;20193;-32
2021/12/18 08:23:23;;;;;;;12.23;6.60;;;;;;;;;;5065229;28;20608;-32
2021/12/18 08:25:49;;;;;;;10.75;5.78;;;;;;;;;;5064426;28;20402;-33
2021/12/18 08:28:15;;;;;;;18.60;8.73;;;;;;;;;;5065168;28;20346;-33
2021/12/18 08:30:41;;;;;;;20.08;12.07;;;;;;;;;;5086892;28;20044;-35
2021/12/18 08:33:11;;;;;;;11.80;5.25;;;;;;;;;;5070891;28;20131;-33
2021/12/18 08:35:37;;;;;;;16.42;8.88;;;;;;;;;;5090983;28;20036;-33
2021/12/18 08:38:03;;;;;;;12.88;6.53;;;;;;;;;;5091193;28;20040;-31
2021/12/18 08:40:30;;;;;;;12.02;5.35;;;;;;;;;;5090555;28;20040;-34
2021/12/18 08:42:56;;;;;;;10.55;4.88;;;;;;;;;;5090100;28;20039;-32
2021/12/18 08:45:22;;;;;;;11.82;4.80;;;;;;;;;;5090637;28;20108;-33
2021/12/18 08:47:48;;;;;;;10.32;4.15;;;;;;;;;;5091124;28;20040;-32
2021/12/18 08:50:17;;;;;;;8.27;4.97;;;;;;;;;;5092145;28;20504;-31
2021/12/18 08:52:44;;;;;;;9.00;4.10;;;;;;;;;;5056665;28;20044;-34
2021/12/18 08:55:10;;;;;;;10.75;4.47;;;;;;;;;;5091014;28;20155;-32
2021/12/18 08:57:36;;;;;;;9.82;4.47;;;;;;;;;;5091571;28;20118;-39
2021/12/18 09:00:03;;;;;;;14.13;6.03;;;;;;;;;;5092145;28;20524;-33
2021/12/18 09:02:30;;;;;;;13.05;5.32;;;;;;;;;;5077771;28;20071;-34
2021/12/18 09:04:56;;;;;;;11.85;4.82;;;;;;;;;;5087965;28;20066;-31
2021/12/18 09:07:23;;;;;;;11.98;4.85;;;;;;;;;;5087889;28;20035;-32
2021/12/18 09:09:49;;;;;;;14.52;5.22;;;;;;;;;;5089025;28;20047;-31
2021/12/18 09:12:15;;;;;;;15.52;5.57;;;;;;;;;;5089606;28;20075;-35
2021/12/18 09:14:41;;;;;;;13.70;5.28;;;;;;;;;;5089338;28;20083;-34
2021/12/18 09:17:07;;;;;;;13.48;5.60;;;;;;;;;;5089460;28;20071;-33
2021/12/18 09:19:34;;;;;;;11.27;4.75;;;;;;;;;;5089406;28;20032;-33
2021/12/18 09:22:00;;;;;;;17.63;5.80;;;;;;;;;;5090012;28;20043;-32
2021/12/18 09:24:26;;;;;;;15.60;6.03;;;;;;;;;;5071957;28;20044;-35
2021/12/18 09:26:52;;;;;;;14.10;5.13;;;;;;;;;;5091154;28;20039;-32
2021/12/18 09:29:19;;;;;;;17.85;5.95;;;;;;;;;;5091113;28;20036;-32
2021/12/18 09:31:45;;;;;;;16.92;6.28;;;;;;;;;;5090906;28;20032;-35
2021/12/18 09:34:11;;;;;;;13.05;5.80;;;;;;;;;;5072336;28;20400;-31
2021/12/18 09:36:37;;;;;;;15.27;5.93;;;;;;;;;;5073029;28;20067;-33
2021/12/18 09:39:04;;;;;;;13.95;5.88;;;;;;;;;;5073279;28;20112;-32
2021/12/18 09:41:30;;;;;;;12.05;6.13;;;;;;;;;;5090952;28;20481;-32
2021/12/18 09:43:56;;;;;;;11.68;5.43;;;;;;;;;;5072626;28;20499;-31
2021/12/18 09:46:23;;;;;;;12.77;5.60;;;;;;;;;;5090857;28;20043;-31
2021/12/18 09:48:49;;;;;;;14.38;5.93;;;;;;;;;;5090634;28;20049;-31
2021/12/18 09:51:27;;;;;;;18.08;5.95;;;;;;;;;;5090331;28;20075;-30
2021/12/18 09:53:53;;;;;;;16.38;6.15;;;;;;;;;;5090279;28;20109;-30
2021/12/18 09:56:19;;;;;;;14.18;5.95;;;;;;;;;;5090927;28;20036;-30
2021/12/18 09:58:46;;;;;;;13.68;6.20;;;;;;;;;;5090566;28;20401;-30
2021/12/18 10:01:12;;;;;;;16.00;6.80;;;;;;;;;;5072987;28;20051;-31
2021/12/18 10:03:49;;;;;;;15.27;7.22;;;;;;;;;;5077243;28;20513;-31
2021/12/18 10:06:34;;;;;;;16.77;6.45;;;;;;;;;;5030417;28;20052;-32
2021/12/18 10:09:01;;;;;;;12.50;5.78;;;;;;;;;;5065601;28;20047;-31
2021/12/18 10:11:27;;;;;;;15.45;6.57;;;;;;;;;;5067298;28;20039;-30
2021/12/18 10:13:54;;;;;;;15.43;6.00;;;;;;;;;;5066822;28;20530;-32
2021/12/18 10:16:21;;;;;;;13.82;6.57;;;;;;;;;;5066442;28;20418;-31
2021/12/18 10:18:48;;;;;;;14.75;6.55;;;;;;;;;;5066970;28;20036;-30
2021/12/18 10:21:18;;;;;;;19.98;7.57;;;;;;;;;;5065675;28;20124;-34
2021/12/18 10:23:45;;;;;;;15.00;7.68;;;;;;;;;;5065470;28;20048;-32
2021/12/18 10:26:30;;;;;;;16.40;6.10;;;;;;;;;;5060812;28;20044;-31
2021/12/18 10:28:56;;;;;;;17.98;6.22;;;;;;;;;;5064084;28;20089;-33
2021/12/18 10:31:38;;;;;;;11.65;6.13;;;;;;;;;;5063220;28;20393;-32
2021/12/18 10:34:26;;;;;;;19.48;7.72;;;;;;;;;;5055642;28;20472;-31
2021/12/18 10:37:19;;;;;;;14.27;6.70;;;;;;;;;;5068058;28;20111;-30
2021/12/18 10:39:53;;;;;;;11.55;6.32;;;;;;;;;;5060290;28;20052;-32
2021/12/18 10:42:42;;;;;;;12.52;5.82;;;;;;;;;;5038071;28;20098;-33
2021/12/18 10:45:16;;;;;;;12.07;5.45;;;;;;;;;;5042728;28;20107;-35
2021/12/18 10:48:08;;;;;;;9.73;4.57;;;;;;;;;;5060125;28;20124;-33
2021/12/18 10:50:42;;;;;;;7.13;3.47;;;;;;;;;;5026290;28;20454;-31
2021/12/18 10:53:10;;;;;;;6.68;4.05;;;;;;;;;;5059317;28;20040;-32
2021/12/18 10:55:41;;;;;;;9.20;4.10;;;;;;;;;;5075205;28;20032;-32
2021/12/18 10:58:08;;;;;;;8.40;4.20;;;;;;;;;;5069811;28;20041;-33
2021/12/18 11:00:37;;;;;;;7.63;3.75;;;;;;;;;;5052523;28;20487;-33
2021/12/18 11:03:12;;;;;;;11.10;4.22;;;;;;;;;;5091638;28;20040;-32
2021/12/18 11:05:38;;;;;;;5.15;3.42;;;;;;;;;;5091934;22;20047;-35
2021/12/18 11:08:12;;;;;;;9.30;3.55;;;;;;;;;;5046203;28;20041;-34
2021/12/18 11:10:54;;;;;;;6.82;4.03;;;;;;;;;;5057651;28;20495;-32
2021/12/18 11:13:45;;;;;;;9.23;3.65;;;;;;;;;;5059230;28;20048;-31
2021/12/18 11:16:11;;;;;;;7.47;3.45;;;;;;;;;;5039314;28;20152;-32
2021/12/18 11:18:37;;;;;;;8.10;2.67;;;;;;;;;;5040834;28;20036;-33
2021/12/18 11:21:03;;;;;;;9.45;3.08;;;;;;;;;;5051160;28;20041;-33
2021/12/18 11:23:39;;;;;;;7.30;3.30;;;;;;;;;;5049743;28;20397;-34
2021/12/18 11:26:05;;;;;;;8.60;3.47;;;;;;;;;;5063170;28;20040;-32
2021/12/18 11:28:32;;;;;;;10.98;4.60;;;;;;;;;;5073763;28;20036;-37
2021/12/18 11:30:59;;;;;;;7.30;5.68;;;;;;;;;;5055133;28;20040;-35
2021/12/18 11:33:25;;;;;;;7.53;4.07;;;;;;;;;;5054532;28;20088;-36
2021/12/18 11:35:51;;;;;;;7.10;3.17;;;;;;;;;;5054371;28;20045;-34
2021/12/18 11:38:18;;;;;;;8.48;2.88;;;;;;;;;;5071723;28;20079;-34
2021/12/18 11:40:44;;;;;;;10.95;3.15;;;;;;;;;;5050287;28;20045;-34
2021/12/18 11:43:29;;;;;;;10.02;4.18;;;;;;;;;;5042556;28;20036;-32
2021/12/18 11:45:55;;;;;;;10.52;3.60;;;;;;;;;;5048171;28;20035;-35
2021/12/18 11:48:22;;;;;;;6.22;3.50;;;;;;;;;;5067542;28;20054;-31
2021/12/18 11:50:48;;;;;;;7.93;3.92;;;;;;;;;;5054283;28;20044;-36
2021/12/18 11:53:19;;;;;;;8.05;3.50;;;;;;;;;;5072077;28;20048;-33
2021/12/18 11:55:51;;;;;;;6.07;3.63;;;;;;;;;;5054054;28;20052;-34
2021/12/18 11:58:28;;;;;;;7.25;3.70;;;;;;;;;;5072083;28;20044;-35
2021/12/18 12:01:14;;;;;;;7.65;3.75;;;;;;;;;;5071968;28;20037;-36
2021/12/18 12:03:43;;;;;;;8.07;4.38;;;;;;;;;;5033787;28;20422;-34
2021/12/18 12:06:24;;;;;;;6.03;4.03;;;;;;;;;;5042297;28;20243;-35
2021/12/18 12:09:13;;;;;;;9.07;5.00;;;;;;;;;;5032876;28;20040;-34
2021/12/18 12:11:56;;;;;;;7.10;4.70;;;;;;;;;;5048240;28;20086;-37
2021/12/18 12:14:40;;;;;;;7.25;4.68;;;;;;;;;;5048278;28;20082;-34
2021/12/18 12:17:24;;;;;;;5.25;3.65;;;;;;;;;;5043671;28;20069;-38
2021/12/18 12:19:52;;;;;;;8.07;4.25;;;;;;;;;;5039881;28;20189;-34
2021/12/18 12:22:32;;;;;;;9.43;4.57;;;;;;;;;;5033008;28;20131;-32
2021/12/18 12:25:02;;;;;;;9.32;5.10;;;;;;;;;;5045685;28;20044;-33
2021/12/18 12:27:33;;;;;;;9.88;5.85;;;;;;;;;;5067927;28;20180;-34
2021/12/18 12:30:00;;;;;;;9.63;5.47;;;;;;;;;;5070924;28;20049;-33
2021/12/18 12:32:27;;;;;;;10.15;5.50;;;;;;;;;;5031014;28;20729;-30
2021/12/18 12:35:10;;;;;;;7.95;4.75;;;;;;;;;;5045024;28;20663;-30
2021/12/18 12:37:46;;;;;;;8.13;5.40;;;;;;;;;;5008678;28;20462;-31
2021/12/18 12:40:12;;;;;;;7.97;5.05;;;;;;;;;;5026747;28;20502;-30
2021/12/18 12:42:39;;;;;;;10.25;4.85;;;;;;;;;;5026268;28;20091;-32
2021/12/18 12:45:16;;;;;;;9.45;6.00;;;;;;;;;;5026961;28;20038;-30
2021/12/18 12:47:53;;;;;;;8.50;5.57;;;;;;;;;;5028434;28;20041;-32
2021/12/18 12:50:29;;;;;;;8.45;5.15;;;;;;;;;;5028886;28;20049;-33
2021/12/18 12:52:57;;;;;;;10.45;5.10;;;;;;;;;;5012634;28;20164;-33
2021/12/18 12:55:31;;;;;;;8.27;4.70;;;;;;;;;;5030909;28;20509;-32
2021/12/18 12:58:04;;;;;;;9.68;4.53;;;;;;;;;;5030612;28;20102;-30
2021/12/18 13:00:34;;;;;;;9.85;5.10;;;;;;;;;;5036228;28;20436;-30
2021/12/18 13:03:07;;;;;;;10.45;5.07;;;;;;;;;;5059440;28;20040;-31
2021/12/18 13:05:43;;;;;;;11.13;6.75;;;;;;;;;;5045019;28;20397;-31
2021/12/18 13:08:09;;;;;;;10.80;5.95;;;;;;;;;;5069926;28;20506;-31
2021/12/18 13:10:38;;;;;;;8.45;5.20;;;;;;;;;;5070141;28;20075;-31
2021/12/18 13:13:05;;;;;;;11.15;6.50;;;;;;;;;;5051826;28;20040;-31
2021/12/18 13:15:50;;;;;;;8.85;5.65;;;;;;;;;;5069940;28;20396;-30
2021/12/18 13:18:17;;;;;;;7.75;4.75;;;;;;;;;;5069878;28;20428;-30
2021/12/18 13:21:03;;;;;;;9.02;4.97;;;;;;;;;;5051933;28;20523;-32
2021/12/18 13:23:38;;;;;;;6.18;3.88;;;;;;;;;;5069585;28;20102;-32
2021/12/18 13:26:18;;;;;;;8.77;5.13;;;;;;;;;;5069495;28;20072;-30
2021/12/18 13:28:52;;;;;;;10.60;6.35;;;;;;;;;;5035009;28;20106;-32
2021/12/18 13:31:20;;;;;;;8.20;5.45;;;;;;;;;;5069517;28;20039;-31
2021/12/18 13:33:52;;;;;;;9.60;5.38;;;;;;;;;;5064120;28;20044;-33
2021/12/18 13:36:19;;;;;;;8.75;5.28;;;;;;;;;;5048451;28;20456;-31
2021/12/18 13:38:47;;;;;;;7.88;4.47;;;;;;;;;;5044999;28;20402;-31
2021/12/18 13:41:18;;;;;;;7.93;5.53;;;;;;;;;;5043265;28;20037;-33
2021/12/18 13:43:53;;;;;;;7.80;4.78;;;;;;;;;;5047808;28;20480;-31
2021/12/18 13:46:19;;;;;;;7.72;5.40;;;;;;;;;;5044424;28;20041;-33
2021/12/18 13:48:49;;;;;;;9.10;5.07;;;;;;;;;;5030292;23;20471;-34
2021/12/18 13:51:20;;;;;;;7.28;4.30;;;;;;;;;;5051990;28;20044;-30
2021/12/18 13:54:02;;;;;;;7.10;4.30;;;;;;;;;;5067367;28;20048;-31
2021/12/18 13:59:17;;;;;;;5.55;3.10;;;;;;;;;;5045078;28;20040;-34
2021/12/18 14:01:44;;;;;;;8.30;3.70;;;;;;;;;;5043529;28;20049;-35
2021/12/18 14:04:14;;;;;;;8.13;4.03;;;;;;;;;;5040773;28;20116;-32
2021/12/18 14:06:48;;;;;;;6.53;3.97;;;;;;;;;;5041071;28;20035;-34
2021/12/18 14:09:24;;;;;;;7.63;3.90;;;;;;;;;;5025732;28;20049;-35
2021/12/18 14:12:02;;;;;;;5.65;4.30;;;;;;;;;;5043514;28;20132;-34
2021/12/18 14:14:33;;;;;;;8.35;3.85;;;;;;;;;;5038760;28;20501;-35
2021/12/18 14:16:59;;;;;;;8.35;3.92;;;;;;;;;;5041001;28;20059;-37
2021/12/18 14:19:32;;;;;;;11.43;4.40;;;;;;;;;;5027136;28;20112;-34
2021/12/18 14:21:58;;;;;;;11.67;3.40;;;;;;;;;;5006136;28;20049;-36
2021/12/18 14:24:27;;;;;;;9.07;3.75;;;;;;;;;;5028697;28;20379;-37
2021/12/18 14:27:14;;;;;;;7.53;4.07;;;;;;;;;;5032166;28;20072;-34
2021/12/18 14:29:56;;;;;;;11.52;4.43;;;;;;;;;;5028997;28;20452;-33
2021/12/18 14:32:26;;;;;;;7.18;3.92;;;;;;;;;;5040024;28;20418;-34
2021/12/18 14:35:01;;;;;;;11.45;4.82;;;;;;;;;;5047959;28;20039;-36
2021/12/18 14:37:27;;;;;;;9.90;5.07;;;;;;;;;;5042429;28;20034;-35
2021/12/18 14:39:54;;;;;;;11.73;5.28;;;;;;;;;;5029216;28;20033;-36
2021/12/18 14:42:35;;;;;;;8.57;4.43;;;;;;;;;;5036662;28;20040;-31
2021/12/18 14:45:06;;;;;;;8.43;4.40;;;;;;;;;;5034545;28;20487;-30
2021/12/18 14:47:33;;;;;;;12.05;4.53;;;;;;;;;;5036290;28;20067;-31
2021/12/18 14:50:17;;;;;;;8.23;4.30;;;;;;;;;;5044342;28;20037;-29
2021/12/18 14:52:48;;;;;;;9.88;4.47;;;;;;;;;;5046187;28;20444;-31
2021/12/18 14:55:19;;;;;;;7.00;4.00;;;;;;;;;;5007286;28;20044;-30
2021/12/18 14:58:05;;;;;;;8.82;4.13;;;;;;;;;;5010727;28;20037;-29
2021/12/18 15:00:34;;;;;;;14.02;4.53;;;;;;;;;;5025191;28;20029;-32
2021/12/18 15:03:03;;;;;;;10.50;4.43;;;;;;;;;;5041450;28;20045;-31
2021/12/18 15:05:44;;;;;;;9.07;3.95;;;;;;;;;;5046023;28;20421;-30
2021/12/18 15:08:15;;;;;;;7.25;3.50;;;;;;;;;;5047303;28;20500;-30
2021/12/18 15:10:50;;;;;;;11.13;4.10;;;;;;;;;;5041169;28;20486;-30
2021/12/18 15:13:17;;;;;;;8.63;4.43;;;;;;;;;;5028015;28;20128;-30
2021/12/18 15:15:44;;;;;;;8.68;5.18;;;;;;;;;;5028826;28;20111;-30
2021/12/18 15:18:10;;;;;;;10.40;4.85;;;;;;;;;;5035664;28;20037;-30
2021/12/18 15:20:36;;;;;;;7.90;4.05;;;;;;;;;;5042163;28;20045;-30
2021/12/18 15:23:02;;;;;;;7.75;4.72;;;;;;;;;;5051236;28;20044;-31
2021/12/18 15:25:28;;;;;;;11.93;4.65;;;;;;;;;;5052979;28;20071;-32
2021/12/18 15:27:55;;;;;;;7.82;4.63;;;;;;;;;;5051070;28;20041;-32
2021/12/18 15:30:21;;;;;;;9.27;4.72;;;;;;;;;;5034803;28;20056;-31
2021/12/18 15:32:47;;;;;;;9.43;4.93;;;;;;;;;;5052789;28;20565;-31
2021/12/18 15:35:16;;;;;;;8.82;4.40;;;;;;;;;;5046479;28;20034;-30
2021/12/18 15:37:42;;;;;;;13.88;5.28;;;;;;;;;;5032656;28;20037;-29